sensor_id;sensor_type;location;lat;lon;timestamp;P1;durP1;ratioP1;P2;durP2;ratioP2
5333;SDS011;2689;50.954;7.116;2023-02-10T00:01:16;25.33;;;16.97;;
5333;SDS011;2689;50.954;7.116;2023-02-10T00:03:46;28.00;;;17.30;;
5333;SDS011;2689;50.954;7.116;2023-02-10T00:06:16;28.47;;;17.90;;
5333;SDS011;2689;50.954;7.116;2023-02-10T00:08:45;26.13;;;16.50;;
5333;SDS011;2689;50.954;7.116;2023-02-10T00:11:13;28.80;;;17.10;;
5333;SDS011;2689;50.954;7.116;2023-02-10T00:13:40;27.83;;;18.30;;
5333;SDS011;2689;50.954;7.116;2023-02-10T00:16:09;29.00;;;18.27;;
5333;SDS011;2689;50.954;7.116;2023-02-10T00:18:37;31.27;;;17.80;;
5333;SDS011;2689;50.954;7.116;2023-02-10T00:21:08;28.17;;;17.47;;
5333;SDS011;2689;50.954;7.116;2023-02-10T00:23:36;25.33;;;17.47;;
5333;SDS011;2689;50.954;7.116;2023-02-10T00:26:03;31.90;;;17.87;;
5333;SDS011;2689;50.954;7.116;2023-02-10T00:28:31;28.00;;;17.60;;
5333;SDS011;2689;50.954;7.116;2023-02-10T00:30:59;30.30;;;18.70;;
5333;SDS011;2689;50.954;7.116;2023-02-10T00:33:31;25.97;;;16.43;;
5333;SDS011;2689;50.954;7.116;2023-02-10T00:35:57;31.07;;;17.70;;
5333;SDS011;2689;50.954;7.116;2023-02-10T00:38:26;28.83;;;18.30;;
5333;SDS011;2689;50.954;7.116;2023-02-10T00:40:52;24.20;;;16.87;;
5333;SDS011;2689;50.954;7.116;2023-02-10T00:43:19;26.37;;;18.27;;
5333;SDS011;2689;50.954;7.116;2023-02-10T00:45:46;35.83;;;19.33;;
5333;SDS011;2689;50.954;7.116;2023-02-10T00:48:12;29.33;;;19.00;;
5333;SDS011;2689;50.954;7.116;2023-02-10T00:50:39;26.57;;;17.10;;
5333;SDS011;2689;50.954;7.116;2023-02-10T00:53:06;28.67;;;19.90;;
5333;SDS011;2689;50.954;7.116;2023-02-10T00:55:34;29.67;;;18.33;;
5333;SDS011;2689;50.954;7.116;2023-02-10T00:58:00;26.83;;;18.97;;
5333;SDS011;2689;50.954;7.116;2023-02-10T01:00:27;30.53;;;19.70;;
5333;SDS011;2689;50.954;7.116;2023-02-10T01:02:54;29.80;;;18.70;;
5333;SDS011;2689;50.954;7.116;2023-02-10T01:05:21;34.10;;;18.30;;
5333;SDS011;2689;50.954;7.116;2023-02-10T01:07:48;29.17;;;18.63;;
5333;SDS011;2689;50.954;7.116;2023-02-10T01:10:17;28.60;;;17.37;;
5333;SDS011;2689;50.954;7.116;2023-02-10T01:12:45;29.60;;;18.40;;
5333;SDS011;2689;50.954;7.116;2023-02-10T01:15:12;30.83;;;18.30;;
5333;SDS011;2689;50.954;7.116;2023-02-10T01:17:39;26.93;;;18.67;;
5333;SDS011;2689;50.954;7.116;2023-02-10T01:20:06;28.37;;;19.23;;
5333;SDS011;2689;50.954;7.116;2023-02-10T01:22:34;30.63;;;18.40;;
5333;SDS011;2689;50.954;7.116;2023-02-10T01:25:01;25.73;;;17.23;;
5333;SDS011;2689;50.954;7.116;2023-02-10T01:27:29;22.50;;;17.90;;
5333;SDS011;2689;50.954;7.116;2023-02-10T01:29:57;31.47;;;18.63;;
5333;SDS011;2689;50.954;7.116;2023-02-10T01:32:23;26.20;;;17.37;;
5333;SDS011;2689;50.954;7.116;2023-02-10T01:34:50;23.80;;;17.57;;
5333;SDS011;2689;50.954;7.116;2023-02-10T01:37:17;28.33;;;17.90;;
5333;SDS011;2689;50.954;7.116;2023-02-10T01:39:44;29.80;;;18.03;;
5333;SDS011;2689;50.954;7.116;2023-02-10T01:42:11;30.30;;;19.00;;
5333;SDS011;2689;50.954;7.116;2023-02-10T01:47:40;27.10;;;17.40;;
5333;SDS011;2689;50.954;7.116;2023-02-10T01:50:08;29.40;;;19.30;;
5333;SDS011;2689;50.954;7.116;2023-02-10T01:52:36;28.90;;;17.70;;
5333;SDS011;2689;50.954;7.116;2023-02-10T01:55:04;30.60;;;20.20;;
5333;SDS011;2689;50.954;7.116;2023-02-10T01:57:34;27.80;;;18.80;;
5333;SDS011;2689;50.954;7.116;2023-02-10T02:00:04;26.80;;;18.57;;
5333;SDS011;2689;50.954;7.116;2023-02-10T02:02:33;28.73;;;19.53;;
5333;SDS011;2689;50.954;7.116;2023-02-10T02:05:01;33.30;;;19.27;;
5333;SDS011;2689;50.954;7.116;2023-02-10T02:07:31;25.03;;;18.07;;
5333;SDS011;2689;50.954;7.116;2023-02-10T02:10:01;26.73;;;18.43;;
5333;SDS011;2689;50.954;7.116;2023-02-10T02:12:31;26.03;;;18.73;;
5333;SDS011;2689;50.954;7.116;2023-02-10T02:15:09;33.60;;;18.63;;
5333;SDS011;2689;50.954;7.116;2023-02-10T02:17:43;33.17;;;18.13;;
5333;SDS011;2689;50.954;7.116;2023-02-10T02:20:28;31.77;;;19.40;;
5333;SDS011;2689;50.954;7.116;2023-02-10T02:23:09;29.37;;;19.80;;
5333;SDS011;2689;50.954;7.116;2023-02-10T02:29:14;32.87;;;18.37;;
5333;SDS011;2689;50.954;7.116;2023-02-10T02:32:09;27.27;;;18.47;;
5333;SDS011;2689;50.954;7.116;2023-02-10T02:34:40;29.63;;;18.03;;
5333;SDS011;2689;50.954;7.116;2023-02-10T02:37:12;30.63;;;19.37;;
5333;SDS011;2689;50.954;7.116;2023-02-10T02:39:43;29.30;;;19.70;;
5333;SDS011;2689;50.954;7.116;2023-02-10T02:42:13;28.60;;;19.07;;
5333;SDS011;2689;50.954;7.116;2023-02-10T02:44:42;29.50;;;19.47;;
5333;SDS011;2689;50.954;7.116;2023-02-10T02:47:13;28.30;;;18.60;;
5333;SDS011;2689;50.954;7.116;2023-02-10T02:49:51;27.40;;;18.57;;
5333;SDS011;2689;50.954;7.116;2023-02-10T02:52:29;30.20;;;18.67;;
5333;SDS011;2689;50.954;7.116;2023-02-10T02:55:07;32.67;;;19.50;;
5333;SDS011;2689;50.954;7.116;2023-02-10T02:57:45;29.03;;;18.10;;
5333;SDS011;2689;50.954;7.116;2023-02-10T03:00:16;29.13;;;19.37;;
5333;SDS011;2689;50.954;7.116;2023-02-10T03:02:48;29.00;;;19.33;;
5333;SDS011;2689;50.954;7.116;2023-02-10T03:05:17;29.40;;;19.70;;
5333;SDS011;2689;50.954;7.116;2023-02-10T03:07:45;29.97;;;18.60;;
5333;SDS011;2689;50.954;7.116;2023-02-10T03:10:12;28.23;;;18.57;;
5333;SDS011;2689;50.954;7.116;2023-02-10T03:12:39;30.20;;;19.83;;
5333;SDS011;2689;50.954;7.116;2023-02-10T03:15:06;32.00;;;20.77;;
5333;SDS011;2689;50.954;7.116;2023-02-10T03:17:34;27.43;;;18.50;;
5333;SDS011;2689;50.954;7.116;2023-02-10T03:20:02;31.27;;;21.03;;
5333;SDS011;2689;50.954;7.116;2023-02-10T03:22:30;29.07;;;19.93;;
5333;SDS011;2689;50.954;7.116;2023-02-10T03:24:56;33.40;;;20.17;;
5333;SDS011;2689;50.954;7.116;2023-02-10T03:27:23;27.27;;;19.07;;
5333;SDS011;2689;50.954;7.116;2023-02-10T03:29:50;33.57;;;18.80;;
5333;SDS011;2689;50.954;7.116;2023-02-10T03:32:17;34.93;;;20.13;;
5333;SDS011;2689;50.954;7.116;2023-02-10T03:34:45;25.90;;;17.87;;
5333;SDS011;2689;50.954;7.116;2023-02-10T03:37:13;30.10;;;20.17;;
5333;SDS011;2689;50.954;7.116;2023-02-10T03:39:40;32.53;;;19.30;;
5333;SDS011;2689;50.954;7.116;2023-02-10T03:42:07;29.30;;;18.80;;
5333;SDS011;2689;50.954;7.116;2023-02-10T03:44:34;30.83;;;20.03;;
5333;SDS011;2689;50.954;7.116;2023-02-10T03:47:01;29.67;;;19.20;;
5333;SDS011;2689;50.954;7.116;2023-02-10T03:49:28;29.60;;;19.63;;
5333;SDS011;2689;50.954;7.116;2023-02-10T03:51:55;36.33;;;20.47;;
5333;SDS011;2689;50.954;7.116;2023-02-10T03:54:23;30.37;;;19.57;;
5333;SDS011;2689;50.954;7.116;2023-02-10T03:56:53;33.00;;;20.90;;
5333;SDS011;2689;50.954;7.116;2023-02-10T03:59:20;33.67;;;19.70;;
5333;SDS011;2689;50.954;7.116;2023-02-10T04:01:47;35.83;;;20.40;;
5333;SDS011;2689;50.954;7.116;2023-02-10T04:04:14;34.60;;;20.30;;
5333;SDS011;2689;50.954;7.116;2023-02-10T04:06:41;31.47;;;20.63;;
5333;SDS011;2689;50.954;7.116;2023-02-10T04:09:07;30.80;;;19.63;;
5333;SDS011;2689;50.954;7.116;2023-02-10T04:11:35;30.53;;;19.67;;
5333;SDS011;2689;50.954;7.116;2023-02-10T04:14:02;31.60;;;20.33;;
5333;SDS011;2689;50.954;7.116;2023-02-10T04:16:29;31.43;;;19.27;;
5333;SDS011;2689;50.954;7.116;2023-02-10T04:18:57;35.13;;;20.00;;
5333;SDS011;2689;50.954;7.116;2023-02-10T04:21:24;31.77;;;21.23;;
5333;SDS011;2689;50.954;7.116;2023-02-10T04:23:51;33.23;;;20.30;;
5333;SDS011;2689;50.954;7.116;2023-02-10T04:26:18;29.27;;;18.30;;
5333;SDS011;2689;50.954;7.116;2023-02-10T04:28:46;30.23;;;18.13;;
5333;SDS011;2689;50.954;7.116;2023-02-10T04:31:12;27.47;;;17.93;;
5333;SDS011;2689;50.954;7.116;2023-02-10T04:33:39;32.17;;;19.77;;
5333;SDS011;2689;50.954;7.116;2023-02-10T04:36:06;29.20;;;18.83;;
5333;SDS011;2689;50.954;7.116;2023-02-10T04:38:33;32.37;;;19.13;;
5333;SDS011;2689;50.954;7.116;2023-02-10T04:41:00;29.90;;;20.10;;
5333;SDS011;2689;50.954;7.116;2023-02-10T04:43:28;33.00;;;21.10;;
5333;SDS011;2689;50.954;7.116;2023-02-10T04:45:56;35.03;;;19.37;;
5333;SDS011;2689;50.954;7.116;2023-02-10T04:48:22;35.30;;;20.33;;
5333;SDS011;2689;50.954;7.116;2023-02-10T04:50:50;39.10;;;22.50;;
5333;SDS011;2689;50.954;7.116;2023-02-10T04:53:17;33.80;;;21.67;;
5333;SDS011;2689;50.954;7.116;2023-02-10T04:55:44;33.37;;;20.47;;
5333;SDS011;2689;50.954;7.116;2023-02-10T04:58:10;30.07;;;19.27;;
5333;SDS011;2689;50.954;7.116;2023-02-10T05:00:37;31.50;;;21.00;;
5333;SDS011;2689;50.954;7.116;2023-02-10T05:03:05;32.10;;;20.00;;
5333;SDS011;2689;50.954;7.116;2023-02-10T05:05:32;29.37;;;19.17;;
5333;SDS011;2689;50.954;7.116;2023-02-10T05:07:59;37.37;;;20.77;;
5333;SDS011;2689;50.954;7.116;2023-02-10T05:10:25;33.33;;;20.70;;
5333;SDS011;2689;50.954;7.116;2023-02-10T05:12:52;37.67;;;22.17;;
5333;SDS011;2689;50.954;7.116;2023-02-10T05:15:19;28.43;;;19.90;;
5333;SDS011;2689;50.954;7.116;2023-02-10T05:17:46;33.43;;;19.90;;
5333;SDS011;2689;50.954;7.116;2023-02-10T05:20:14;33.20;;;19.70;;
5333;SDS011;2689;50.954;7.116;2023-02-10T05:22:40;34.67;;;20.30;;
5333;SDS011;2689;50.954;7.116;2023-02-10T05:25:08;28.23;;;19.27;;
5333;SDS011;2689;50.954;7.116;2023-02-10T05:27:35;31.07;;;21.07;;
5333;SDS011;2689;50.954;7.116;2023-02-10T05:30:02;43.27;;;22.30;;
5333;SDS011;2689;50.954;7.116;2023-02-10T05:32:31;35.30;;;21.20;;
5333;SDS011;2689;50.954;7.116;2023-02-10T05:34:58;33.87;;;19.67;;
5333;SDS011;2689;50.954;7.116;2023-02-10T05:37:26;30.00;;;20.03;;
5333;SDS011;2689;50.954;7.116;2023-02-10T05:39:53;33.93;;;20.13;;
5333;SDS011;2689;50.954;7.116;2023-02-10T05:42:19;31.37;;;19.63;;
5333;SDS011;2689;50.954;7.116;2023-02-10T05:44:46;37.20;;;20.67;;
5333;SDS011;2689;50.954;7.116;2023-02-10T05:47:13;36.03;;;21.43;;
5333;SDS011;2689;50.954;7.116;2023-02-10T05:49:39;39.60;;;21.23;;
5333;SDS011;2689;50.954;7.116;2023-02-10T05:52:06;41.20;;;22.50;;
5333;SDS011;2689;50.954;7.116;2023-02-10T05:54:34;36.67;;;21.00;;
5333;SDS011;2689;50.954;7.116;2023-02-10T05:57:01;35.97;;;22.23;;
5333;SDS011;2689;50.954;7.116;2023-02-10T05:59:28;44.93;;;21.60;;
5333;SDS011;2689;50.954;7.116;2023-02-10T06:01:55;35.93;;;21.00;;
5333;SDS011;2689;50.954;7.116;2023-02-10T06:04:22;42.10;;;20.90;;
5333;SDS011;2689;50.954;7.116;2023-02-10T06:06:49;40.13;;;23.37;;
5333;SDS011;2689;50.954;7.116;2023-02-10T06:09:16;44.67;;;23.47;;
5333;SDS011;2689;50.954;7.116;2023-02-10T06:11:44;39.63;;;23.30;;
5333;SDS011;2689;50.954;7.116;2023-02-10T06:14:11;35.77;;;22.03;;
5333;SDS011;2689;50.954;7.116;2023-02-10T06:16:38;37.60;;;21.40;;
5333;SDS011;2689;50.954;7.116;2023-02-10T06:19:05;40.70;;;22.80;;
5333;SDS011;2689;50.954;7.116;2023-02-10T06:21:32;38.00;;;22.80;;
5333;SDS011;2689;50.954;7.116;2023-02-10T06:23:58;39.93;;;22.27;;
5333;SDS011;2689;50.954;7.116;2023-02-10T06:26:25;44.13;;;22.60;;
5333;SDS011;2689;50.954;7.116;2023-02-10T06:28:54;37.10;;;22.53;;
5333;SDS011;2689;50.954;7.116;2023-02-10T06:31:21;37.93;;;22.07;;
5333;SDS011;2689;50.954;7.116;2023-02-10T06:33:48;38.80;;;21.80;;
5333;SDS011;2689;50.954;7.116;2023-02-10T06:36:15;41.75;;;23.10;;
5333;SDS011;2689;50.954;7.116;2023-02-10T06:38:42;36.05;;;22.83;;
5333;SDS011;2689;50.954;7.116;2023-02-10T06:41:09;43.20;;;22.27;;
5333;SDS011;2689;50.954;7.116;2023-02-10T06:43:36;42.55;;;23.00;;
5333;SDS011;2689;50.954;7.116;2023-02-10T06:46:04;40.73;;;22.47;;
5333;SDS011;2689;50.954;7.116;2023-02-10T06:48:31;43.30;;;23.27;;
5333;SDS011;2689;50.954;7.116;2023-02-10T06:50:58;39.10;;;25.00;;
5333;SDS011;2689;50.954;7.116;2023-02-10T06:53:25;49.67;;;27.63;;
5333;SDS011;2689;50.954;7.116;2023-02-10T06:55:54;49.87;;;27.10;;
5333;SDS011;2689;50.954;7.116;2023-02-10T06:58:22;46.90;;;25.80;;
5333;SDS011;2689;50.954;7.116;2023-02-10T07:00:49;50.03;;;26.13;;
5333;SDS011;2689;50.954;7.116;2023-02-10T07:03:17;43.87;;;24.00;;
5333;SDS011;2689;50.954;7.116;2023-02-10T07:05:44;45.55;;;24.63;;
5333;SDS011;2689;50.954;7.116;2023-02-10T07:08:11;44.23;;;23.13;;
5333;SDS011;2689;50.954;7.116;2023-02-10T07:10:37;40.40;;;23.97;;
5333;SDS011;2689;50.954;7.116;2023-02-10T07:13:04;45.10;;;22.70;;
5333;SDS011;2689;50.954;7.116;2023-02-10T07:15:31;45.15;;;23.73;;
5333;SDS011;2689;50.954;7.116;2023-02-10T07:17:57;58.63;;;25.97;;
5333;SDS011;2689;50.954;7.116;2023-02-10T07:20:26;38.53;;;22.90;;
5333;SDS011;2689;50.954;7.116;2023-02-10T07:22:53;42.87;;;24.40;;
5333;SDS011;2689;50.954;7.116;2023-02-10T07:25:19;39.87;;;23.50;;
5333;SDS011;2689;50.954;7.116;2023-02-10T07:27:46;47.67;;;27.60;;
5333;SDS011;2689;50.954;7.116;2023-02-10T07:30:13;41.63;;;24.87;;
5333;SDS011;2689;50.954;7.116;2023-02-10T07:32:40;49.07;;;25.90;;
5333;SDS011;2689;50.954;7.116;2023-02-10T07:35:09;51.57;;;24.90;;
5333;SDS011;2689;50.954;7.116;2023-02-10T07:37:37;41.47;;;24.23;;
5333;SDS011;2689;50.954;7.116;2023-02-10T07:40:05;45.97;;;25.43;;
5333;SDS011;2689;50.954;7.116;2023-02-10T07:42:33;39.60;;;24.17;;
5333;SDS011;2689;50.954;7.116;2023-02-10T07:45:00;40.77;;;23.90;;
5333;SDS011;2689;50.954;7.116;2023-02-10T07:47:27;39.30;;;24.50;;
5333;SDS011;2689;50.954;7.116;2023-02-10T07:49:54;47.37;;;22.80;;
5333;SDS011;2689;50.954;7.116;2023-02-10T07:52:21;36.10;;;21.00;;
5333;SDS011;2689;50.954;7.116;2023-02-10T07:54:50;38.23;;;23.47;;
5333;SDS011;2689;50.954;7.116;2023-02-10T07:57:17;37.53;;;21.83;;
5333;SDS011;2689;50.954;7.116;2023-02-10T07:59:44;38.40;;;21.93;;
5333;SDS011;2689;50.954;7.116;2023-02-10T08:02:10;44.80;;;25.40;;
5333;SDS011;2689;50.954;7.116;2023-02-10T08:04:38;39.87;;;24.17;;
5333;SDS011;2689;50.954;7.116;2023-02-10T08:07:04;41.20;;;21.70;;
5333;SDS011;2689;50.954;7.116;2023-02-10T08:09:31;43.80;;;24.47;;
5333;SDS011;2689;50.954;7.116;2023-02-10T08:11:59;43.27;;;24.70;;
5333;SDS011;2689;50.954;7.116;2023-02-10T08:14:26;37.03;;;22.80;;
5333;SDS011;2689;50.954;7.116;2023-02-10T08:16:53;36.40;;;22.80;;
5333;SDS011;2689;50.954;7.116;2023-02-10T08:19:20;51.47;;;23.67;;
5333;SDS011;2689;50.954;7.116;2023-02-10T08:21:47;35.50;;;20.33;;
5333;SDS011;2689;50.954;7.116;2023-02-10T08:24:14;44.27;;;24.67;;
5333;SDS011;2689;50.954;7.116;2023-02-10T08:26:41;40.80;;;23.87;;
5333;SDS011;2689;50.954;7.116;2023-02-10T08:29:10;36.60;;;22.37;;
5333;SDS011;2689;50.954;7.116;2023-02-10T08:31:37;38.33;;;23.47;;
5333;SDS011;2689;50.954;7.116;2023-02-10T08:34:04;43.93;;;24.00;;
5333;SDS011;2689;50.954;7.116;2023-02-10T08:36:31;45.10;;;24.67;;
5333;SDS011;2689;50.954;7.116;2023-02-10T08:38:58;58.40;;;24.80;;
5333;SDS011;2689;50.954;7.116;2023-02-10T08:41:25;50.60;;;25.50;;
5333;SDS011;2689;50.954;7.116;2023-02-10T08:43:55;41.30;;;24.90;;
5333;SDS011;2689;50.954;7.116;2023-02-10T08:46:24;40.03;;;21.20;;
5333;SDS011;2689;50.954;7.116;2023-02-10T08:48:51;37.20;;;22.53;;
5333;SDS011;2689;50.954;7.116;2023-02-10T08:51:18;38.87;;;19.20;;
5333;SDS011;2689;50.954;7.116;2023-02-10T08:53:45;31.77;;;18.90;;
5333;SDS011;2689;50.954;7.116;2023-02-10T08:56:14;36.77;;;21.93;;
5333;SDS011;2689;50.954;7.116;2023-02-10T08:58:42;33.97;;;21.80;;
5333;SDS011;2689;50.954;7.116;2023-02-10T09:01:10;37.00;;;21.80;;
5333;SDS011;2689;50.954;7.116;2023-02-10T09:03:40;37.33;;;21.87;;
5333;SDS011;2689;50.954;7.116;2023-02-10T09:06:11;33.83;;;22.03;;
5333;SDS011;2689;50.954;7.116;2023-02-10T09:08:41;33.63;;;20.87;;
5333;SDS011;2689;50.954;7.116;2023-02-10T09:11:08;37.17;;;21.07;;
5333;SDS011;2689;50.954;7.116;2023-02-10T09:13:37;33.30;;;19.27;;
5333;SDS011;2689;50.954;7.116;2023-02-10T09:16:04;33.20;;;19.60;;
5333;SDS011;2689;50.954;7.116;2023-02-10T09:18:31;34.83;;;22.20;;
5333;SDS011;2689;50.954;7.116;2023-02-10T09:21:00;34.27;;;20.00;;
5333;SDS011;2689;50.954;7.116;2023-02-10T09:23:27;40.67;;;22.00;;
5333;SDS011;2689;50.954;7.116;2023-02-10T09:25:55;36.75;;;22.23;;
5333;SDS011;2689;50.954;7.116;2023-02-10T09:28:23;35.65;;;23.88;;
5333;SDS011;2689;50.954;7.116;2023-02-10T09:30:51;33.83;;;21.40;;
5333;SDS011;2689;50.954;7.116;2023-02-10T09:33:18;35.30;;;19.27;;
5333;SDS011;2689;50.954;7.116;2023-02-10T09:36:02;34.07;;;21.63;;
5333;SDS011;2689;50.954;7.116;2023-02-10T09:38:34;32.47;;;19.63;;
5333;SDS011;2689;50.954;7.116;2023-02-10T09:41:07;36.70;;;20.03;;
5333;SDS011;2689;50.954;7.116;2023-02-10T09:43:50;31.83;;;19.73;;
5333;SDS011;2689;50.954;7.116;2023-02-10T09:50:03;32.73;;;19.07;;
5333;SDS011;2689;50.954;7.116;2023-02-10T09:52:44;30.63;;;19.40;;
5333;SDS011;2689;50.954;7.116;2023-02-10T09:55:22;32.83;;;20.13;;
5333;SDS011;2689;50.954;7.116;2023-02-10T09:57:54;30.17;;;19.30;;
5333;SDS011;2689;50.954;7.116;2023-02-10T10:00:25;33.17;;;20.20;;
5333;SDS011;2689;50.954;7.116;2023-02-10T10:02:55;33.53;;;19.20;;
5333;SDS011;2689;50.954;7.116;2023-02-10T10:05:42;35.53;;;19.37;;
5333;SDS011;2689;50.954;7.116;2023-02-10T10:08:21;33.33;;;19.47;;
5333;SDS011;2689;50.954;7.116;2023-02-10T10:10:53;28.10;;;17.47;;
5333;SDS011;2689;50.954;7.116;2023-02-10T10:13:27;31.17;;;19.43;;
5333;SDS011;2689;50.954;7.116;2023-02-10T10:16:02;31.97;;;19.27;;
5333;SDS011;2689;50.954;7.116;2023-02-10T10:18:43;30.00;;;17.53;;
5333;SDS011;2689;50.954;7.116;2023-02-10T10:21:21;32.03;;;19.67;;
5333;SDS011;2689;50.954;7.116;2023-02-10T10:23:57;32.43;;;19.50;;
5333;SDS011;2689;50.954;7.116;2023-02-10T10:26:45;27.53;;;17.20;;
5333;SDS011;2689;50.954;7.116;2023-02-10T10:29:30;25.53;;;17.50;;
5333;SDS011;2689;50.954;7.116;2023-02-10T10:32:10;28.77;;;17.10;;
5333;SDS011;2689;50.954;7.116;2023-02-10T10:34:42;29.33;;;17.30;;
5333;SDS011;2689;50.954;7.116;2023-02-10T10:37:18;24.50;;;15.67;;
5333;SDS011;2689;50.954;7.116;2023-02-10T10:39:49;28.40;;;18.40;;
5333;SDS011;2689;50.954;7.116;2023-02-10T10:42:21;29.37;;;17.13;;
5333;SDS011;2689;50.954;7.116;2023-02-10T10:44:52;29.00;;;17.57;;
5333;SDS011;2689;50.954;7.116;2023-02-10T10:47:27;30.93;;;18.50;;
5333;SDS011;2689;50.954;7.116;2023-02-10T10:50:01;28.87;;;18.30;;
5333;SDS011;2689;50.954;7.116;2023-02-10T10:52:50;26.20;;;18.00;;
5333;SDS011;2689;50.954;7.116;2023-02-10T10:55:48;28.57;;;17.47;;
5333;SDS011;2689;50.954;7.116;2023-02-10T10:58:23;29.47;;;17.83;;
5333;SDS011;2689;50.954;7.116;2023-02-10T11:00:52;27.73;;;17.30;;
5333;SDS011;2689;50.954;7.116;2023-02-10T11:03:20;29.77;;;18.83;;
5333;SDS011;2689;50.954;7.116;2023-02-10T11:05:56;34.27;;;18.67;;
5333;SDS011;2689;50.954;7.116;2023-02-10T11:08:27;33.47;;;18.90;;
5333;SDS011;2689;50.954;7.116;2023-02-10T11:10:58;31.17;;;19.57;;
5333;SDS011;2689;50.954;7.116;2023-02-10T11:13:28;31.40;;;19.87;;
5333;SDS011;2689;50.954;7.116;2023-02-10T11:15:58;32.50;;;17.53;;
5333;SDS011;2689;50.954;7.116;2023-02-10T11:18:29;31.73;;;18.50;;
5333;SDS011;2689;50.954;7.116;2023-02-10T11:20:56;37.00;;;20.10;;
5333;SDS011;2689;50.954;7.116;2023-02-10T11:23:35;40.10;;;18.53;;
5333;SDS011;2689;50.954;7.116;2023-02-10T11:26:17;29.63;;;19.10;;
5333;SDS011;2689;50.954;7.116;2023-02-10T11:28:46;35.90;;;18.03;;
5333;SDS011;2689;50.954;7.116;2023-02-10T11:31:19;27.37;;;16.87;;
5333;SDS011;2689;50.954;7.116;2023-02-10T11:33:54;28.50;;;16.77;;
5333;SDS011;2689;50.954;7.116;2023-02-10T11:36:28;30.77;;;18.23;;
5333;SDS011;2689;50.954;7.116;2023-02-10T11:39:00;28.83;;;17.80;;
5333;SDS011;2689;50.954;7.116;2023-02-10T11:41:31;30.10;;;18.90;;
5333;SDS011;2689;50.954;7.116;2023-02-10T11:43:59;35.80;;;19.03;;
5333;SDS011;2689;50.954;7.116;2023-02-10T11:46:28;30.40;;;18.40;;
5333;SDS011;2689;50.954;7.116;2023-02-10T11:48:57;33.30;;;19.40;;
5333;SDS011;2689;50.954;7.116;2023-02-10T11:51:25;28.87;;;19.13;;
5333;SDS011;2689;50.954;7.116;2023-02-10T11:53:52;34.57;;;19.73;;
5333;SDS011;2689;50.954;7.116;2023-02-10T11:56:20;28.53;;;18.77;;
5333;SDS011;2689;50.954;7.116;2023-02-10T11:59:14;31.07;;;19.20;;
5333;SDS011;2689;50.954;7.116;2023-02-10T12:01:49;43.20;;;22.77;;
5333;SDS011;2689;50.954;7.116;2023-02-10T12:04:24;38.60;;;23.13;;
5333;SDS011;2689;50.954;7.116;2023-02-10T12:07:15;33.17;;;20.43;;
5333;SDS011;2689;50.954;7.116;2023-02-10T12:09:50;36.27;;;20.13;;
5333;SDS011;2689;50.954;7.116;2023-02-10T12:12:22;31.90;;;19.40;;
5333;SDS011;2689;50.954;7.116;2023-02-10T12:14:57;34.73;;;21.43;;
5333;SDS011;2689;50.954;7.116;2023-02-10T12:17:31;35.90;;;21.13;;
5333;SDS011;2689;50.954;7.116;2023-02-10T12:20:11;38.97;;;23.43;;
5333;SDS011;2689;50.954;7.116;2023-02-10T12:22:52;37.70;;;19.90;;
5333;SDS011;2689;50.954;7.116;2023-02-10T12:25:36;38.27;;;21.47;;
5333;SDS011;2689;50.954;7.116;2023-02-10T12:28:12;31.87;;;20.60;;
5333;SDS011;2689;50.954;7.116;2023-02-10T12:30:49;36.10;;;20.90;;
5333;SDS011;2689;50.954;7.116;2023-02-10T12:33:30;32.80;;;20.10;;
5333;SDS011;2689;50.954;7.116;2023-02-10T12:36:11;39.33;;;20.10;;
5333;SDS011;2689;50.954;7.116;2023-02-10T12:39:00;39.53;;;19.90;;
5333;SDS011;2689;50.954;7.116;2023-02-10T12:41:38;34.10;;;21.23;;
5333;SDS011;2689;50.954;7.116;2023-02-10T12:44:24;29.23;;;18.00;;
5333;SDS011;2689;50.954;7.116;2023-02-10T12:47:19;40.25;;;23.15;;
5333;SDS011;2689;50.954;7.116;2023-02-10T12:50:03;36.40;;;20.63;;
5333;SDS011;2689;50.954;7.116;2023-02-10T12:52:46;31.30;;;20.70;;
5333;SDS011;2689;50.954;7.116;2023-02-10T12:55:20;38.80;;;20.80;;
5333;SDS011;2689;50.954;7.116;2023-02-10T12:57:51;38.03;;;20.47;;
5333;SDS011;2689;50.954;7.116;2023-02-10T13:00:23;39.83;;;20.27;;
5333;SDS011;2689;50.954;7.116;2023-02-10T13:02:56;37.93;;;21.23;;
5333;SDS011;2689;50.954;7.116;2023-02-10T13:05:28;33.87;;;22.10;;
5333;SDS011;2689;50.954;7.116;2023-02-10T13:07:59;39.30;;;21.50;;
5333;SDS011;2689;50.954;7.116;2023-02-10T13:10:29;32.73;;;21.53;;
5333;SDS011;2689;50.954;7.116;2023-02-10T13:13:00;28.07;;;15.77;;
5333;SDS011;2689;50.954;7.116;2023-02-10T13:15:31;34.73;;;20.40;;
5333;SDS011;2689;50.954;7.116;2023-02-10T13:18:03;31.30;;;20.07;;
5333;SDS011;2689;50.954;7.116;2023-02-10T13:20:44;34.73;;;21.20;;
5333;SDS011;2689;50.954;7.116;2023-02-10T13:23:22;34.27;;;18.60;;
5333;SDS011;2689;50.954;7.116;2023-02-10T13:28:54;28.93;;;17.20;;
5333;SDS011;2689;50.954;7.116;2023-02-10T13:31:35;27.33;;;18.10;;
5333;SDS011;2689;50.954;7.116;2023-02-10T13:34:15;29.57;;;15.47;;
5333;SDS011;2689;50.954;7.116;2023-02-10T13:36:45;27.87;;;19.43;;
5333;SDS011;2689;50.954;7.116;2023-02-10T13:39:19;33.27;;;18.70;;
5333;SDS011;2689;50.954;7.116;2023-02-10T13:41:47;36.10;;;16.70;;
5333;SDS011;2689;50.954;7.116;2023-02-10T13:44:17;35.37;;;18.20;;
5333;SDS011;2689;50.954;7.116;2023-02-10T13:46:48;31.20;;;16.60;;
5333;SDS011;2689;50.954;7.116;2023-02-10T13:49:22;24.03;;;16.27;;
5333;SDS011;2689;50.954;7.116;2023-02-10T13:51:50;30.93;;;16.00;;
5333;SDS011;2689;50.954;7.116;2023-02-10T13:54:25;24.00;;;16.90;;
5333;SDS011;2689;50.954;7.116;2023-02-10T13:56:54;24.47;;;16.83;;
5333;SDS011;2689;50.954;7.116;2023-02-10T13:59:26;28.37;;;16.53;;
5333;SDS011;2689;50.954;7.116;2023-02-10T14:02:11;26.50;;;16.13;;
5333;SDS011;2689;50.954;7.116;2023-02-10T14:04:47;22.07;;;14.87;;
5333;SDS011;2689;50.954;7.116;2023-02-10T14:07:28;21.90;;;16.80;;
5333;SDS011;2689;50.954;7.116;2023-02-10T14:10:07;25.80;;;16.70;;
5333;SDS011;2689;50.954;7.116;2023-02-10T14:12:53;15.60;;;10.97;;
5333;SDS011;2689;50.954;7.116;2023-02-10T14:15:22;31.10;;;16.90;;
5333;SDS011;2689;50.954;7.116;2023-02-10T14:17:58;24.23;;;17.10;;
5333;SDS011;2689;50.954;7.116;2023-02-10T14:20:30;24.27;;;16.00;;
5333;SDS011;2689;50.954;7.116;2023-02-10T14:23:00;27.43;;;17.20;;
5333;SDS011;2689;50.954;7.116;2023-02-10T14:25:29;22.60;;;16.43;;
5333;SDS011;2689;50.954;7.116;2023-02-10T14:28:06;27.50;;;16.50;;
5333;SDS011;2689;50.954;7.116;2023-02-10T14:30:45;26.93;;;18.43;;
5333;SDS011;2689;50.954;7.116;2023-02-10T14:33:20;26.03;;;17.10;;
5333;SDS011;2689;50.954;7.116;2023-02-10T14:35:52;21.87;;;14.47;;
5333;SDS011;2689;50.954;7.116;2023-02-10T14:38:22;22.77;;;15.43;;
5333;SDS011;2689;50.954;7.116;2023-02-10T14:40:51;25.30;;;16.13;;
5333;SDS011;2689;50.954;7.116;2023-02-10T14:43:20;27.97;;;16.70;;
5333;SDS011;2689;50.954;7.116;2023-02-10T14:45:49;23.77;;;14.57;;
5333;SDS011;2689;50.954;7.116;2023-02-10T14:48:17;23.93;;;16.10;;
5333;SDS011;2689;50.954;7.116;2023-02-10T14:50:57;23.20;;;16.40;;
5333;SDS011;2689;50.954;7.116;2023-02-10T14:53:29;21.60;;;13.80;;
5333;SDS011;2689;50.954;7.116;2023-02-10T14:55:57;28.07;;;15.67;;
5333;SDS011;2689;50.954;7.116;2023-02-10T14:58:25;24.53;;;15.47;;
5333;SDS011;2689;50.954;7.116;2023-02-10T15:00:53;23.13;;;15.37;;
5333;SDS011;2689;50.954;7.116;2023-02-10T15:03:23;20.13;;;15.50;;
5333;SDS011;2689;50.954;7.116;2023-02-10T15:05:52;23.10;;;15.77;;
5333;SDS011;2689;50.954;7.116;2023-02-10T15:08:23;21.40;;;14.80;;
5333;SDS011;2689;50.954;7.116;2023-02-10T15:10:56;34.53;;;15.90;;
5333;SDS011;2689;50.954;7.116;2023-02-10T15:13:24;26.80;;;15.27;;
5333;SDS011;2689;50.954;7.116;2023-02-10T15:15:55;26.50;;;16.13;;
5333;SDS011;2689;50.954;7.116;2023-02-10T15:18:23;26.40;;;16.30;;
5333;SDS011;2689;50.954;7.116;2023-02-10T15:20:55;26.13;;;14.77;;